Hugo, Oregon
Current Conditions -  °F | °C
As of 10:56 AM on Saturday 20 Dec 2014 (Local Time) from KSXT Reporting Station
Light Rain Light Rain  
Wind Chill: 29°   Ceiling: 200
Heat Index: 40°   Visibility: 0mi
Dew Point: 40°   Wind: 24mph
Humidity: 100%   Direction: 190°S
Pressure: 29.85"   Gusts: 38mph
Location:  42.6114°N, 123.7°W
Report Text: KSXT 201856Z AUTO 19021G33KT M1/4SM -RA FG VV002 04/04 A2985 RMK AO2 PK WND 20038/1837 SLP116 P0003 T00440044
Loading
Personal Weather Stations






























Interactive Weather Map New forecast layout! Learn more

10-Day Weather Forecast

Advertisements
Track Severe Weather on mobile